Time,TemperatureF,DewpointF,PressureIn,WindDirection,WindDirectionDegrees,WindSpeedMPH,WindSpeedGustMPH,Humidity,HourlyPrecipIn,Conditions,Clouds,dailyrainin,SoftwareType,DateUTC
2013-06-25 00:00:00,59.0,-99.9,-100.00,East,79,30.0,-999.0,-999,-99.99,,,0.00,,2013-06-25 06:00:00,
2013-06-25 01:00:00,57.0,-99.9,-100.00,North,-999,-999.0,-999.0,-999,-99.99,,,-99.99,,2013-06-25 07:00:00,
2013-06-25 02:00:00,55.0,-99.9,-100.00,ESE,111,41.0,-999.0,-999,-99.99,,,0.00,,2013-06-25 08:00:00,
2013-06-25 03:00:00,51.0,-99.9,-100.00,SE,137,120.0,-999.0,-999,-99.99,,,0.00,,2013-06-25 09:00:00,
2013-06-25 04:00:00,49.0,-99.9,-100.00,North,-999,-999.0,-999.0,-999,-99.99,,,0.00,,2013-06-25 10:00:00,
2013-06-25 06:00:00,50.0,-99.9,-100.00,SSE,168,63.0,-999.0,-999,-99.99,,,-99.99,,2013-06-25 12:00:00,
2013-06-25 07:00:00,53.0,-99.9,-100.00,SSE,166,60.0,-999.0,-999,-99.99,,,-99.99,,2013-06-25 13:00:00,
2013-06-25 08:00:00,56.0,-99.9,-100.00,SSE,148,52.0,-999.0,-999,-99.99,,,0.00,,2013-06-25 14:00:00,
2013-06-25 09:00:00,58.0,-99.9,-100.00,SE,144,51.0,-999.0,-999,-99.99,,,0.00,,2013-06-25 15:00:00,
2013-06-25 10:00:00,62.0,-99.9,-100.00,SE,137,51.0,-999.0,-999,-99.99,,,0.00,,2013-06-25 16:00:00,
2013-06-25 11:00:00,62.0,-99.9,-100.00,SE,126,48.0,-999.0,-999,-99.99,,,0.00,,2013-06-25 17:00:00,
2013-06-25 12:00:00,65.0,-99.9,-100.00,ESE,114,43.0,-999.0,-999,-99.99,,,0.00,,2013-06-25 18:00:00,
2013-06-25 13:00:00,68.0,-99.9,-100.00,ESE,103,38.0,-999.0,-999,-99.99,,,0.00,,2013-06-25 19:00:00,
2013-06-25 16:00:00,69.0,-99.9,-100.00,ESE,111,44.0,-999.0,-999,-99.99,,,0.00,,2013-06-25 22:00:00,
2013-06-25 17:00:00,67.0,-99.9,-100.00,ESE,106,41.0,-999.0,-999,-99.99,,,0.00,,2013-06-25 23:00:00,
2013-06-25 18:00:00,65.0,-99.9,-100.00,ESE,108,38.0,-999.0,-999,-99.99,,,-99.99,,2013-06-26 00:00:00,
2013-06-25 19:00:00,65.0,-99.9,-100.00,ESE,107,38.0,-999.0,-999,-99.99,,,0.00,,2013-06-26 01:00:00,
2013-06-25 19:44:00,65.0,-99.9,-100.00,ESE,107,38.0,-999.0,-999,-99.99,,,0.00,,2013-06-26 01:44:00,
2013-06-25 20:00:00,60.0,-99.9,-100.00,ESE,115,43.0,-999.0,-999,-99.99,,,0.00,,2013-06-26 02:00:00,
2013-06-25 20:44:00,60.0,-99.9,-100.00,ESE,115,43.0,-999.0,-999,-99.99,,,0.00,,2013-06-26 02:44:00,
2013-06-25 20:53:00,60.0,-99.9,-100.00,ESE,115,43.0,-999.0,-999,-99.99,,,0.00,,2013-06-26 02:53:00,
2013-06-25 22:00:00,53.0,-99.9,-100.00,SSE,156,56.0,-999.0,-999,-99.99,,,0.00,,2013-06-26 04:00:00,